Cusco, Peru

7:02 PM PET on February 19, 2017 (GMT -0500)
Alejandro Velazco Astete | | Change Station

Elev 10659 ft 13.55 °S, 71.98 °W | Updated 2 minutes ago

Fog
Fog
50 °F
Feels Like 50 °F
N
1
Wind Variable Wind from Variable

Today
High -- | Low -- °F
--% Chance of Precip.
Yesterday
High -- | Low -- °F
Precip. -- in
Pressure 30.45 in
Visibility 5.6 miles
Clouds Few 2000 ft
Scattered Clouds 3600 ft
Overcast 8000 ft
Dew Point 45 °F
Humidity 82%
Rainfall 0.00 in
Snow Depth Not available.
5:47 AM 6:15 PM
Last Quarter, 39% visible
METAR SPZO 200000Z VRB01KT 9000 -DZ FEW020 SCT036 OVC080 10/07 Q1031 RMK BIRD HAZARD RWY 28 PPTRZ
Pressure 30.45 in
Visibility 5.6 miles
Clouds Few 2000 ft
Scattered Clouds 3600 ft
Overcast 8000 ft
Dew Point 45 °F
Humidity 82%
Rainfall 0.00 in
Snow Depth Not available.
5:47 AM 6:15 PM
Last Quarter, 39% visible
METAR SPZO 200000Z VRB01KT 9000 -DZ FEW020 SCT036 OVC080 10/07 Q1031 RMK BIRD HAZARD RWY 28 PPTRZ

Get Your Daily Forecast Email!

Thanks for signing up!

Be on the lookout for a verification email in your inbox.

You'll start receiving the daily forecast at 8 AM.

×

10-Day Weather Forecast

No radar image for this location.
×

Almanac

Astronomy

Feb. 19, 2017 Rise Set
Actual Time
Civil Twilight
Nautical Twilight
Astronomical Twilight
Moon
Length of Visible Light
Length of Day
Tomorrow will be .
, % of the Moon is Illuminated

Today's Extremes

Country Highs Country Lows

Community

WunderPhotos

Upload Photos

1,962,540 photos uploaded!

WunderBlog® & News

Nearby

Air Quality

  Air Quality AQ Index Pollutant
Not available.

Snow Depth

Station Depth Elevation

Earthquake Activity

City Distance Mag. Time & Date
Minimum magnitude displayed is 2.5.

Coastal Water Temperatures

Place Temperature

Stations

Nearby Weather Stations

Station Location Temp. Windchill Dew Point Humidity Wind Precip. Elev Updated Type